Time;durP1;ratioP1;P1;durP2;ratioP2;P2;SDS_P1;SDS_P2;PMS_P1;PMS_P2;Temp;Humidity;BMP_temperature;BMP_pressure;BME280_temperature;BME280_humidity;BME280_pressure;Samples;Min_cycle;Max_cycle;Signal;HPM_P1;HPM_P2
2021/12/07 00:01:21;;;;;;;18.73;15.50;;;;;;;-0.13;100.00;95816.47;5050126;27;105582;-61
2021/12/07 00:03:48;;;;;;;19.20;14.23;;;;;;;-0.14;100.00;95825.31;5050865;27;102150;-61
2021/12/07 00:06:15;;;;;;;23.90;15.60;;;;;;;-0.18;100.00;95821.47;5053769;27;103715;-62
2021/12/07 00:08:43;;;;;;;19.53;15.10;;;;;;;-0.22;100.00;95822.84;5050948;27;101859;-61
2021/12/07 00:11:12;;;;;;;18.80;15.10;;;;;;;-0.27;100.00;95820.84;5050760;27;105305;-61
2021/12/07 00:13:39;;;;;;;22.57;16.13;;;;;;;-0.38;100.00;95814.59;5050284;27;105404;-61
2021/12/07 00:16:10;;;;;;;19.77;15.77;;;;;;;-0.47;100.00;95812.16;5050661;27;102265;-61
2021/12/07 00:18:38;;;;;;;20.20;15.50;;;;;;;-0.41;100.00;95802.72;5050668;27;105311;-61
2021/12/07 00:21:07;;;;;;;21.70;16.40;;;;;;;-0.45;100.00;95788.47;5050036;27;105731;-61
2021/12/07 00:23:35;;;;;;;18.63;15.20;;;;;;;-0.49;100.00;95786.44;5050502;27;101775;-61
2021/12/07 00:26:02;;;;;;;19.73;15.07;;;;;;;-0.52;100.00;95789.44;5050432;27;103989;-61
2021/12/07 00:28:31;;;;;;;19.97;16.07;;;;;;;-0.62;100.00;95784.59;5052419;27;105085;-61
2021/12/07 00:31:09;;;;;;;19.97;15.33;;;;;;;-0.58;100.00;95785.81;5050606;27;103724;-61
2021/12/07 00:33:43;;;;;;;20.17;15.40;;;;;;;-0.69;100.00;95790.78;5049859;27;105240;-61
2021/12/07 00:36:10;;;;;;;17.47;14.23;;;;;;;-0.70;100.00;95786.56;5050184;27;101831;-61
2021/12/07 00:38:37;;;;;;;18.70;15.20;;;;;;;-0.68;100.00;95790.59;5050144;27;104827;-61
2021/12/07 00:41:04;;;;;;;21.37;14.87;;;;;;;-0.79;100.00;95798.16;5049638;27;106070;-61
2021/12/07 00:43:33;;;;;;;19.63;15.93;;;;;;;-0.73;100.00;95802.63;5049737;27;101791;-61
2021/12/07 00:46:01;;;;;;;20.27;14.70;;;;;;;-0.82;100.00;95801.97;5050011;27;105484;-61
2021/12/07 00:48:29;;;;;;;20.23;15.20;;;;;;;-0.87;100.00;95804.38;5049694;27;105453;-61
2021/12/07 00:50:57;;;;;;;22.00;16.87;;;;;;;-0.84;100.00;95801.38;5053561;27;102234;-61
2021/12/07 00:53:26;;;;;;;26.13;18.60;;;;;;;-0.77;100.00;95801.41;5049663;27;105523;-61
2021/12/07 00:55:56;;;;;;;20.93;15.80;;;;;;;-0.77;100.00;95812.63;5050250;27;101952;-61
2021/12/07 00:58:25;;;;;;;20.10;16.13;;;;;;;-0.81;100.00;95811.44;5049713;27;104093;-61
2021/12/07 01:00:57;;;;;;;21.73;16.77;;;;;;;-0.73;100.00;95811.25;5049637;27;105492;-61
2021/12/07 01:03:25;;;;;;;20.10;15.60;;;;;;;-0.76;100.00;95808.25;5050193;27;102122;-61
2021/12/07 01:06:03;;;;;;;20.90;15.83;;;;;;;-0.79;100.00;95819.06;5050046;27;103718;-61
2021/12/07 01:08:57;;;;;;;17.83;14.30;;;;;;;-0.79;100.00;95806.81;5049580;27;105151;-61
2021/12/07 01:25:12;;;;;;;18.70;13.97;;;;;;;-1.16;100.00;95816.88;5049918;27;101980;-62
2021/12/07 01:27:40;;;;;;;17.33;14.60;;;;;;;-1.17;100.00;95823.88;5049433;27;105629;-61
2021/12/07 01:30:13;;;;;;;19.67;14.73;;;;;;;-1.14;100.00;95822.69;5049232;27;105515;-61
2021/12/07 01:33:01;;;;;;;18.67;14.57;;;;;;;-1.19;100.00;95823.28;5049691;27;102130;-61
2021/12/07 01:38:36;;;;;;;19.70;14.73;;;;;;;-1.14;100.00;95826.13;5052491;27;105818;-61
2021/12/07 01:41:13;;;;;;;18.93;14.23;;;;;;;-1.03;100.00;95828.19;5049532;27;104062;-61
2021/12/07 01:46:51;;;;;;;17.37;13.53;;;;;;;-0.78;100.00;95818.06;5049176;27;102092;-61
2021/12/07 02:00:44;;;;;;;13.67;11.53;;;;;;;-0.77;100.00;95791.75;5022107;27;105923;-61
2021/12/07 02:03:11;;;;;;;16.57;12.53;;;;;;;-0.81;100.00;95793.16;5052356;27;101785;-61
2021/12/07 02:05:40;;;;;;;13.33;10.83;;;;;;;-0.92;100.00;95783.28;5049767;27;102632;-61
2021/12/07 02:08:07;;;;;;;13.40;11.47;;;;;;;-0.88;100.00;95787.09;5032093;27;102138;-61
2021/12/07 02:10:35;;;;;;;12.50;10.20;;;;;;;-0.92;100.00;95778.06;5048855;27;104807;-61
2021/12/07 02:13:20;;;;;;;11.27;10.07;;;;;;;-0.92;100.00;95769.44;5048260;27;105101;-61
2021/12/07 02:15:48;;;;;;;13.97;10.33;;;;;;;-0.88;100.00;95765.44;5048922;27;101927;-61
2021/12/07 02:18:17;;;;;;;14.30;10.40;;;;;;;-0.89;100.00;95775.06;5048807;27;105608;-61
2021/12/07 02:20:48;;;;;;;15.07;10.57;;;;;;;-0.87;100.00;95765.25;5047818;27;105238;-61
2021/12/07 02:23:16;;;;;;;12.50;10.07;;;;;;;-0.87;100.00;95754.00;5052308;27;101825;-61
2021/12/07 02:25:44;;;;;;;12.17;9.70;;;;;;;-0.86;100.00;95745.97;5048063;27;105059;-61
2021/12/07 02:28:14;;;;;;;11.53;9.73;;;;;;;-0.87;100.00;95752.19;5049478;27;102334;-61
2021/12/07 02:30:42;;;;;;;11.90;9.40;;;;;;;-0.81;100.00;95747.97;5049827;27;105030;-61
2021/12/07 02:33:10;;;;;;;12.97;9.83;;;;;;;-0.86;100.00;95751.19;5049022;27;105391;-62
2021/12/07 02:35:37;;;;;;;17.13;12.73;;;;;;;-0.96;100.00;95755.97;5049630;27;102077;-61
2021/12/07 02:38:07;;;;;;;12.80;9.90;;;;;;;-0.96;100.00;95748.13;5048485;27;105739;-61
2021/12/07 02:40:37;;;;;;;10.67;9.10;;;;;;;-0.90;100.00;95749.97;5048672;27;105477;-61
2021/12/07 02:43:06;;;;;;;11.93;9.47;;;;;;;-0.84;100.00;95750.97;5048769;27;101897;-61
2021/12/07 02:45:33;;;;;;;11.10;9.03;;;;;;;-0.80;100.00;95754.81;5052398;27;105522;-61
2021/12/07 02:48:00;;;;;;;9.07;8.17;;;;;;;-0.69;100.00;95754.25;5049525;27;102662;-61
2021/12/07 02:50:27;;;;;;;11.43;8.43;;;;;;;-0.68;100.00;95740.19;5049461;27;105343;-61
2021/12/07 02:52:54;;;;;;;8.67;7.07;;;;;;;-0.66;100.00;95752.03;5047943;27;105805;-61
2021/12/07 02:55:23;;;;;;;9.23;7.23;;;;;;;-0.65;100.00;95742.41;5049346;27;101956;-61
2021/12/07 02:57:50;;;;;;;9.60;7.70;;;;;;;-0.59;100.00;95746.84;5049175;27;105216;-61
2021/12/07 03:00:26;;;;;;;8.57;7.60;;;;;;;-0.57;100.00;95732.59;5048590;27;105558;-61
2021/12/07 03:03:02;;;;;;;7.90;7.10;;;;;;;-0.59;100.00;95732.00;5066161;27;102136;-61
2021/12/07 03:05:40;;;;;;;7.53;6.77;;;;;;;-0.55;100.00;95730.56;5049381;27;104878;-61
2021/12/07 03:08:40;;;;;;;8.97;7.17;;;;;;;-0.51;100.00;95731.81;5052114;27;105358;-61
2021/12/07 03:28:02;;;;;;;5.83;5.23;;;;;;;-0.25;100.00;95724.00;5048830;27;104972;-61
2021/12/07 03:30:33;;;;;;;6.00;5.40;;;;;;;-0.21;100.00;95714.78;5048323;27;104943;-61
2021/12/07 03:33:02;;;;;;;5.90;5.30;;;;;;;-0.10;100.00;95714.16;5053397;27;101876;-61
2021/12/07 03:35:32;;;;;;;4.70;4.30;;;;;;;-0.15;100.00;95708.75;5048363;27;105355;-61
2021/12/07 03:38:00;;;;;;;4.30;3.90;;;;;;;-0.03;100.00;95713.16;5048840;27;102022;-61
2021/12/07 03:40:27;;;;;;;4.83;3.60;;;;;;;0.05;100.00;95715.56;5048654;27;104119;-61
2021/12/07 03:42:54;;;;;;;3.80;3.50;;;;;;;0.15;100.00;95723.00;5047724;27;103829;-61
2021/12/07 03:45:25;;;;;;;4.40;3.73;;;;;;;0.20;100.00;95724.00;5048387;27;102079;-61
2021/12/07 03:47:54;;;;;;;5.03;3.40;;;;;;;0.28;100.00;95731.63;5048667;27;105320;-61
2021/12/07 03:50:22;;;;;;;3.93;3.53;;;;;;;0.31;100.00;95735.66;5048090;27;105162;-61
2021/12/07 03:52:51;;;;;;;3.93;3.30;;;;;;;0.32;100.00;95739.88;5048666;27;101709;-62
2021/12/07 03:55:18;;;;;;;3.60;3.30;;;;;;;0.34;100.00;95756.19;5051252;27;103701;-61
2021/12/07 03:57:45;;;;;;;3.63;3.33;;;;;;;0.29;100.00;95748.13;5048642;27;102540;-61
2021/12/07 04:00:16;;;;;;;3.17;2.87;;;;;;;0.27;100.00;95750.94;5048145;27;104514;-61
2021/12/07 04:02:51;;;;;;;3.23;2.93;;;;;;;0.27;100.00;95764.00;5047739;27;104749;-61
2021/12/07 04:05:23;;;;;;;3.67;2.97;;;;;;;0.27;100.00;95768.44;5051430;27;101751;-61
2021/12/07 04:07:52;;;;;;;3.70;3.33;;;;;;;0.27;100.00;95768.44;5051909;27;104858;-61
2021/12/07 04:10:25;;;;;;;4.00;3.20;;;;;;;0.26;100.00;95785.13;5051488;27;105282;-61
2021/12/07 04:12:52;;;;;;;3.50;3.20;;;;;;;0.15;100.00;95797.00;5051518;27;102215;-61
2021/12/07 04:15:20;;;;;;;5.63;3.43;;;;;;;0.11;100.00;95797.63;5051597;27;105724;-61
2021/12/07 04:17:49;;;;;;;4.37;3.50;;;;;;;0.04;100.00;95802.81;5054083;27;101894;-61
2021/12/07 04:20:19;;;;;;;4.03;3.63;;;;;;;-0.08;100.00;95793.16;5051423;27;104849;-61
2021/12/07 04:22:47;;;;;;;4.17;3.63;;;;;;;-0.12;100.00;95805.00;5068177;27;105047;-61
2021/12/07 04:25:16;;;;;;;4.23;3.83;;;;;;;-0.19;100.00;95801.59;5052898;27;101791;-61
2021/12/07 04:27:44;;;;;;;4.17;3.77;;;;;;;-0.25;100.00;95805.00;5052827;27;102814;-61
2021/12/07 04:30:14;;;;;;;4.57;3.87;;;;;;;-0.21;100.00;95800.97;5052141;27;102521;-61
2021/12/07 04:32:42;;;;;;;5.17;4.27;;;;;;;-0.23;100.00;95816.03;5052788;27;101817;-61
2021/12/07 04:35:13;;;;;;;6.80;4.90;;;;;;;-0.28;100.00;95815.81;5051127;27;105468;-61
2021/12/07 04:37:41;;;;;;;5.80;4.67;;;;;;;-0.29;100.00;95803.75;5054441;27;103850;-62
2021/12/07 04:40:12;;;;;;;6.93;5.03;;;;;;;-0.47;100.00;95816.59;5051219;27;103711;-61
2021/12/07 04:42:40;;;;;;;5.17;4.67;;;;;;;-0.49;100.00;95810.75;5050651;27;104019;-61
2021/12/07 04:45:11;;;;;;;6.50;5.67;;;;;;;-0.54;100.00;95813.16;5067862;27;101757;-61
2021/12/07 04:47:49;;;;;;;6.43;5.40;;;;;;;-0.54;100.00;95823.59;5051210;27;105399;-61
2021/12/07 04:58:27;;;;;;;7.40;5.37;;;;;;;-0.70;100.00;95802.22;5050395;27;105417;-61
2021/12/07 05:00:55;;;;;;;7.63;5.50;;;;;;;-0.77;100.00;95812.63;5054090;27;101850;-61
2021/12/07 05:03:23;;;;;;;7.03;5.30;;;;;;;-0.73;100.00;95808.66;5052080;27;102584;-61
2021/12/07 05:05:54;;;;;;;8.17;5.73;;;;;;;-0.72;100.00;95810.25;5051408;27;102046;-61
2021/12/07 05:08:33;;;;;;;6.50;5.53;;;;;;;-0.73;100.00;95806.03;5052788;27;102798;-61
2021/12/07 05:11:33;;;;;;;7.10;5.83;;;;;;;-0.70;100.00;95807.47;5052077;27;102531;-61
2021/12/07 05:14:14;;;;;;;6.07;5.40;;;;;;;-0.73;100.00;95808.66;5052982;27;101785;-61
2021/12/07 05:16:54;;;;;;;6.47;5.40;;;;;;;-0.75;100.00;95810.66;5050731;27;105191;-61
2021/12/07 05:26:01;;;;;;;8.10;5.53;;;;;;;-0.71;100.00;95811.06;5054010;27;105085;-62
2021/12/07 05:39:35;;;;;;;8.27;5.43;;;;;;;-0.60;100.00;95824.34;5050764;27;104866;-61
2021/12/07 05:42:02;;;;;;;7.03;5.67;;;;;;;-0.59;100.00;95820.75;5049224;27;104973;-61
2021/12/07 05:44:29;;;;;;;8.23;6.20;;;;;;;-0.47;100.00;95819.19;5051599;27;101733;-61
2021/12/07 05:46:56;;;;;;;6.70;5.60;;;;;;;-0.47;100.00;95818.38;5050292;27;103683;-61
2021/12/07 05:49:23;;;;;;;8.00;5.83;;;;;;;-0.44;100.00;95828.44;5054547;27;102526;-61
2021/12/07 05:51:50;;;;;;;9.93;6.33;;;;;;;-0.40;100.00;95830.47;5050012;27;104886;-61
2021/12/07 05:54:17;;;;;;;7.30;5.40;;;;;;;-0.40;100.00;95838.28;5049534;27;105956;-61
2021/12/07 05:56:45;;;;;;;6.80;4.73;;;;;;;-0.38;100.00;95831.09;5066988;27;101922;-61
2021/12/07 05:59:12;;;;;;;8.73;5.30;;;;;;;-0.37;100.00;95837.91;5050200;27;104956;-61
2021/12/07 06:01:40;;;;;;;6.63;5.20;;;;;;;-0.33;100.00;95830.47;5049594;27;103668;-61
2021/12/07 06:04:06;;;;;;;9.33;5.87;;;;;;;-0.29;100.00;95840.34;5049849;27;102043;-61
2021/12/07 06:06:34;;;;;;;8.03;5.53;;;;;;;-0.33;100.00;95844.34;5050179;27;104774;-61
2021/12/07 06:09:01;;;;;;;8.73;5.53;;;;;;;-0.29;100.00;95840.34;5063248;27;105564;-61
2021/12/07 06:11:28;;;;;;;6.50;5.30;;;;;;;-0.32;100.00;95847.75;5071771;27;102288;-61
2021/12/07 06:13:57;;;;;;;6.70;5.53;;;;;;;-0.33;100.00;95846.94;5069592;27;103693;-61
2021/12/07 06:16:24;;;;;;;6.10;5.00;;;;;;;-0.30;100.00;95841.34;5070374;27;101918;-61
2021/12/07 06:18:51;;;;;;;7.87;5.67;;;;;;;-0.20;100.00;95847.00;5070248;27;105273;-61
2021/12/07 06:21:19;;;;;;;5.67;4.93;;;;;;;-0.24;100.00;95847.59;5068918;27;105345;-61
2021/12/07 06:23:46;;;;;;;7.17;5.37;;;;;;;-0.20;100.00;95857.44;5070303;27;102030;-62
2021/12/07 06:26:12;;;;;;;6.23;5.60;;;;;;;-0.20;100.00;95852.22;5070562;27;102414;-62
2021/12/07 06:28:40;;;;;;;6.50;5.33;;;;;;;-0.19;100.00;95853.84;5069428;27;105871;-62
2021/12/07 06:31:08;;;;;;;6.77;4.87;;;;;;;-0.17;100.00;95851.81;5073638;27;101931;-63
2021/12/07 06:33:35;;;;;;;5.67;4.90;;;;;;;-0.13;100.00;95853.03;5069162;27;105511;-62
2021/12/07 06:36:04;;;;;;;6.23;4.90;;;;;;;-0.10;100.00;95857.88;5070001;27;101798;-62
2021/12/07 06:38:34;;;;;;;6.27;4.70;;;;;;;-0.11;100.00;95861.47;5070031;27;103779;-62
2021/12/07 06:41:02;;;;;;;5.27;4.77;;;;;;;-0.08;100.00;95868.94;5070379;27;101772;-62
2021/12/07 06:43:29;;;;;;;5.53;4.90;;;;;;;-0.10;100.00;95870.94;5069820;27;102041;-62
2021/12/07 06:45:56;;;;;;;5.40;4.50;;;;;;;-0.03;100.00;95882.22;5069464;27;104914;-62
2021/12/07 06:48:27;;;;;;;4.97;4.33;;;;;;;-0.02;100.00;95882.03;5068397;27;101991;-62
2021/12/07 06:50:54;;;;;;;5.40;4.90;;;;;;;-0.03;100.00;95877.81;5068269;27;101853;-62
2021/12/07 06:53:21;;;;;;;5.63;5.13;;;;;;;0.04;100.00;95877.81;5071666;27;103660;-62
2021/12/07 06:55:48;;;;;;;5.50;4.43;;;;;;;0.02;100.00;95880.59;5069066;27;102112;-62
2021/12/07 06:58:15;;;;;;;6.20;4.80;;;;;;;0.11;100.00;95881.25;5068591;27;105299;-62
2021/12/07 07:00:43;;;;;;;4.27;3.77;;;;;;;0.14;100.00;95880.84;5068713;27;105784;-62
2021/12/07 07:03:09;;;;;;;4.83;4.33;;;;;;;0.16;100.00;95887.47;5068435;27;101859;-62
2021/12/07 07:05:38;;;;;;;5.17;4.23;;;;;;;0.21;100.00;95882.47;5069298;27;105146;-62
2021/12/07 07:08:06;;;;;;;6.47;4.90;;;;;;;0.24;100.00;95887.28;5067508;27;105380;-62
2021/12/07 07:10:34;;;;;;;5.47;4.03;;;;;;;0.25;100.00;95898.56;5070841;27;101826;-62
2021/12/07 07:13:01;;;;;;;5.07;4.00;;;;;;;0.31;100.00;95895.97;5069320;27;105382;-62
2021/12/07 07:15:28;;;;;;;6.63;3.90;;;;;;;0.35;100.00;95894.56;5072284;27;104985;-62
2021/12/07 07:17:55;;;;;;;5.40;3.47;;;;;;;0.44;100.00;95895.97;5069437;27;104826;-62
2021/12/07 07:20:22;;;;;;;6.20;4.00;;;;;;;0.51;100.00;95903.84;5069840;27;102542;-62
2021/12/07 07:22:51;;;;;;;5.40;3.70;;;;;;;0.57;100.00;95911.69;5069109;27;101934;-62
2021/12/07 07:25:18;;;;;;;5.77;3.77;;;;;;;0.59;100.00;95908.84;5069175;27;104267;-62
2021/12/07 07:27:45;;;;;;;3.87;2.83;;;;;;;0.65;100.00;95910.66;5068505;27;103902;-62
2021/12/07 07:30:15;;;;;;;3.60;3.30;;;;;;;0.71;100.00;95908.06;5069348;27;101965;-62
2021/12/07 07:32:44;;;;;;;5.27;4.07;;;;;;;0.79;100.00;95922.75;5069360;27;105386;-62
2021/12/07 07:35:11;;;;;;;6.07;2.87;;;;;;;0.88;100.00;95924.19;5068475;27;105382;-62
2021/12/07 07:37:39;;;;;;;7.00;3.17;;;;;;;0.96;100.00;95931.81;5072493;27;102004;-62
2021/12/07 07:40:12;;;;;;;5.50;3.57;;;;;;;1.20;100.00;95915.50;5073428;27;102545;-62
2021/12/07 07:42:39;;;;;;;4.07;2.67;;;;;;;1.28;100.00;95917.88;5072468;27;101789;-62
2021/12/07 07:45:26;;;;;;;1.97;1.77;;;;;;;1.54;100.00;95923.06;5073628;27;103850;-62
2021/12/07 07:47:54;;;;;;;2.53;1.83;;;;;;;1.65;100.00;95922.44;5073004;27;102510;-62
2021/12/07 07:50:23;;;;;;;2.07;1.80;;;;;;;1.75;100.00;95931.47;5072720;27;101886;-62
2021/12/07 07:52:50;;;;;;;1.37;1.27;;;;;;;1.92;100.00;95932.59;5072649;27;103977;-62
2021/12/07 07:55:19;;;;;;;1.53;1.30;;;;;;;1.99;100.00;95937.81;5071908;27;105361;-62
2021/12/07 07:57:46;;;;;;;2.80;1.37;;;;;;;2.01;100.00;95930.53;5072414;27;101816;-62
2021/12/07 08:00:17;;;;;;;3.43;1.20;;;;;;;2.07;100.00;95934.97;5075267;27;105162;-62
2021/12/07 08:02:44;;;;;;;1.47;1.20;;;;;;;2.14;100.00;95941.00;5072175;27;101813;-62
2021/12/07 08:05:12;;;;;;;1.27;1.17;;;;;;;2.22;100.00;95943.38;5074055;27;102369;-62
2021/12/07 08:07:40;;;;;;;1.57;1.07;;;;;;;2.28;100.00;95943.34;5071626;27;105826;-62
2021/12/07 08:10:11;;;;;;;1.40;1.30;;;;;;;2.24;100.00;95947.38;5072576;27;101793;-62
2021/12/07 08:12:40;;;;;;;2.13;1.30;;;;;;;2.35;100.00;95945.94;5073454;27;102630;-62
2021/12/07 08:15:07;;;;;;;1.20;1.20;;;;;;;2.40;100.00;95959.22;5071522;27;105775;-62
2021/12/07 08:17:35;;;;;;;1.53;1.27;;;;;;;2.39;100.00;95962.84;5072257;27;101864;-62
2021/12/07 08:20:02;;;;;;;2.73;1.57;;;;;;;2.43;100.00;95964.03;5072010;27;105243;-62
2021/12/07 08:22:30;;;;;;;1.10;1.10;;;;;;;2.43;100.00;95958.78;5074683;27;105532;-62
2021/12/07 08:24:57;;;;;;;1.40;1.17;;;;;;;2.47;100.00;95962.63;5072314;27;103851;-62
2021/12/07 08:27:25;;;;;;;1.40;1.30;;;;;;;2.51;100.00;95969.06;5071386;27;105386;-62
2021/12/07 08:29:54;;;;;;;1.60;1.50;;;;;;;2.55;100.00;95965.78;5073488;27;101838;-62
2021/12/07 08:32:21;;;;;;;2.57;1.40;;;;;;;2.57;100.00;95965.59;5071731;27;105342;-62
2021/12/07 08:34:48;;;;;;;1.93;1.73;;;;;;;2.62;100.00;95971.00;5071215;27;104989;-62
2021/12/07 08:37:15;;;;;;;2.07;1.30;;;;;;;2.65;100.00;95975.81;5071848;27;101949;-62
2021/12/07 08:39:42;;;;;;;1.53;1.30;;;;;;;2.69;100.00;95977.03;5071870;27;104821;-62
2021/12/07 08:42:10;;;;;;;4.27;3.73;;;;;;;2.67;100.00;95977.22;5075721;27;102810;-62
2021/12/07 08:44:37;;;;;;;5.97;3.00;;;;;;;2.75;100.00;95986.66;5071334;27;103761;-62
2021/12/07 08:47:07;;;;;;;1.77;1.30;;;;;;;2.80;100.00;95985.00;5070697;27;105903;-62
2021/12/07 08:49:33;;;;;;;2.33;1.40;;;;;;;2.77;100.00;95980.19;5070930;27;101843;-62
2021/12/07 08:52:01;;;;;;;3.57;2.40;;;;;;;2.80;100.00;95990.25;5071657;27;105049;-62
2021/12/07 08:54:36;;;;;;;5.37;2.97;;;;;;;2.83;100.00;95984.59;5070849;27;105194;-62
2021/12/07 08:59:49;;;;;;;1.87;1.50;;;;;;;2.88;100.00;95986.56;5071307;27;104278;-62
2021/12/07 09:02:22;;;;;;;2.13;1.20;;;;;;;2.90;100.00;95976.69;5070785;27;105033;-62
2021/12/07 09:04:51;;;;;;;1.20;1.10;;;;;;;2.92;100.00;95983.34;5074783;27;101873;-62
2021/12/07 09:07:18;;;;;;;1.50;1.17;;;;;;;2.94;100.00;95985.72;5070639;27;105230;-62
2021/12/07 09:09:45;;;;;;;2.30;1.27;;;;;;;2.91;100.00;95994.84;5073011;27;102145;-62
2021/12/07 09:12:13;;;;;;;2.00;1.10;;;;;;;2.95;100.00;95998.66;5071355;27;103773;-62
2021/12/07 09:14:42;;;;;;;1.00;1.00;;;;;;;2.92;100.00;96000.91;5070544;27;105567;-62
2021/12/07 09:17:11;;;;;;;2.00;1.33;;;;;;;2.91;100.00;96009.78;5071047;27;102056;-62
2021/12/07 09:19:41;;;;;;;3.33;1.30;;;;;;;2.92;100.00;96009.59;5071027;27;105736;-62
2021/12/07 09:22:08;;;;;;;3.60;2.00;;;;;;;2.95;100.00;96011.00;5071478;27;103129;-62
2021/12/07 09:24:36;;;;;;;3.40;1.60;;;;;;;2.95;100.00;96006.53;5071203;27;101813;-62
2021/12/07 09:27:03;;;;;;;2.20;1.70;;;;;;;2.99;100.00;95999.84;5074060;27;105161;-62
2021/12/07 09:29:31;;;;;;;3.77;2.10;;;;;;;3.04;100.00;95997.38;5070846;27;101957;-62
2021/12/07 09:31:58;;;;;;;3.23;1.70;;;;;;;3.05;100.00;95998.97;5071084;27;105608;-62
2021/12/07 09:34:25;;;;;;;2.53;1.23;;;;;;;3.14;100.00;96007.41;5071786;27;101665;-62
2021/12/07 09:36:54;;;;;;;2.03;1.13;;;;;;;3.21;100.00;96008.16;5070980;27;101969;-62
2021/12/07 09:39:21;;;;;;;1.20;1.10;;;;;;;3.27;100.00;96007.31;5070780;27;105498;-62
2021/12/07 09:41:48;;;;;;;2.17;1.63;;;;;;;3.34;100.00;96013.31;5070285;27;105179;-62
2021/12/07 09:44:15;;;;;;;5.07;1.70;;;;;;;3.41;100.00;96012.25;5070608;27;101834;-62
2021/12/07 09:46:43;;;;;;;3.30;1.50;;;;;;;3.46;100.00;96011.59;5070834;27;105438;-62
2021/12/07 09:49:11;;;;;;;3.80;1.40;;;;;;;3.74;100.00;96006.69;5073401;27;105926;-62
2021/12/07 09:51:39;;;;;;;2.73;1.60;;;;;;;3.76;100.00;96010.72;5070369;27;105424;-62
2021/12/07 09:54:10;;;;;;;3.17;2.10;;;;;;;3.48;100.00;96020.06;5069990;27;106231;-62
2021/12/07 09:56:37;;;;;;;2.13;1.87;;;;;;;3.46;100.00;96014.22;5070601;27;101870;-62
2021/12/07 09:59:05;;;;;;;1.97;1.87;;;;;;;3.38;100.00;96017.13;5070515;27;105192;-62
2021/12/07 10:01:34;;;;;;;1.83;1.60;;;;;;;3.22;100.00;96015.03;5068373;27;105046;-62
2021/12/07 10:04:01;;;;;;;2.90;2.50;;;;;;;3.22;100.00;96015.81;5070414;27;102590;-62
2021/12/07 10:06:28;;;;;;;3.77;1.43;;;;;;;3.14;100.00;96008.22;5070336;27;105052;-62
2021/12/07 10:08:56;;;;;;;2.60;2.20;;;;;;;3.16;100.00;96006.19;5069843;27;105323;-62
2021/12/07 10:11:25;;;;;;;5.03;2.40;;;;;;;3.17;100.00;96001.75;5073808;27;101984;-62
2021/12/07 10:13:54;;;;;;;4.90;3.13;;;;;;;3.11;100.00;96007.84;5069987;27;104928;-62
2021/12/07 10:16:23;;;;;;;4.03;2.20;;;;;;;3.11;100.00;96007.84;5070247;27;101918;-62
2021/12/07 10:18:51;;;;;;;2.47;2.27;;;;;;;3.02;100.00;96009.13;5071417;27;102828;-62
2021/12/07 10:21:23;;;;;;;2.90;1.87;;;;;;;3.04;100.00;96009.69;5070557;27;102775;-62
2021/12/07 10:23:53;;;;;;;3.43;2.27;;;;;;;2.99;100.00;96010.34;5070123;27;101844;-62
2021/12/07 10:26:24;;;;;;;3.33;2.50;;;;;;;3.05;100.00;96016.56;5071579;27;101704;-62
2021/12/07 10:28:54;;;;;;;4.50;2.30;;;;;;;2.99;100.00;96004.28;5069722;27;105096;-62
2021/12/07 10:31:32;;;;;;;2.43;2.20;;;;;;;2.90;100.00;96005.56;5070940;27;101831;-62
2021/12/07 10:34:03;;;;;;;4.23;3.70;;;;;;;2.97;100.00;96001.06;5072996;27;105688;-62
2021/12/07 10:36:34;;;;;;;4.50;2.13;;;;;;;2.89;100.00;95993.47;5070172;27;101800;-62
2021/12/07 10:39:10;;;;;;;2.37;2.17;;;;;;;2.95;100.00;96000.50;5070061;27;105595;-62
2021/12/07 10:41:42;;;;;;;3.10;2.30;;;;;;;2.95;100.00;95997.84;5068924;27;105804;-62
2021/12/07 10:44:11;;;;;;;4.53;2.20;;;;;;;2.89;100.00;95996.09;5069092;27;101787;-62
2021/12/07 10:46:42;;;;;;;3.73;2.10;;;;;;;2.98;100.00;95992.97;5071090;27;102344;-62
2021/12/07 10:49:43;;;;;;;4.80;2.40;;;;;;;2.86;100.00;95997.31;5069234;27;105726;-62
2021/12/07 10:52:14;;;;;;;2.80;2.40;;;;;;;2.97;100.00;96004.50;5069868;27;101872;-62
2021/12/07 10:54:49;;;;;;;2.70;2.13;;;;;;;3.06;100.00;95995.34;5074149;27;102389;-62
2021/12/07 10:57:20;;;;;;;2.67;1.50;;;;;;;3.29;100.00;96000.03;5069640;27;102430;-62
2021/12/07 10:59:58;;;;;;;4.73;1.50;;;;;;;3.44;100.00;96005.75;5069844;27;104812;-62
2021/12/07 11:02:30;;;;;;;3.07;1.93;;;;;;;3.51;100.00;96004.69;5069351;27;102784;-62
2021/12/07 11:04:58;;;;;;;2.77;1.60;;;;;;;3.56;100.00;95998.78;5069942;27;101987;-62
2021/12/07 11:07:27;;;;;;;2.33;1.80;;;;;;;3.58;100.00;96001.97;5069482;27;106186;-62
2021/12/07 11:10:05;;;;;;;2.83;1.50;;;;;;;3.62;100.00;96000.53;5068879;27;105386;-62
2021/12/07 11:12:43;;;;;;;1.70;1.40;;;;;;;3.62;100.00;95996.09;5070153;27;102167;-62
2021/12/07 11:15:41;;;;;;;2.80;1.13;;;;;;;3.65;100.00;96005.38;5071435;27;102046;-62
2021/12/07 11:18:11;;;;;;;1.83;1.50;;;;;;;3.66;100.00;96012.25;5077433;27;103013;-62
2021/12/07 11:20:40;;;;;;;2.00;1.20;;;;;;;3.73;100.00;95998.00;5073945;27;102470;-62
2021/12/07 11:23:12;;;;;;;1.53;0.97;;;;;;;3.78;100.00;95994.72;5073893;27;102535;-62
2021/12/07 11:25:54;;;;;;;2.13;1.40;;;;;;;3.88;100.00;96000.28;5074603;27;101676;-62
2021/12/07 11:31:14;;;;;;;1.20;1.10;;;;;;;3.86;100.00;96002.31;5073554;27;102798;-62
2021/12/07 11:33:42;;;;;;;3.97;1.57;;;;;;;3.87;100.00;95998.69;5072881;27;101951;-62
2021/12/07 11:36:16;;;;;;;2.13;1.90;;;;;;;3.83;100.00;96000.13;5074213;27;102864;-62
2021/12/07 11:38:43;;;;;;;2.30;1.50;;;;;;;3.80;100.00;95997.94;5072064;27;105793;-62
2021/12/07 11:41:20;;;;;;;6.03;1.43;;;;;;;3.82;100.00;95994.06;5077633;27;101897;-62
2021/12/07 11:43:59;;;;;;;2.20;1.30;;;;;;;3.87;100.00;95994.22;5071303;27;104133;-62
2021/12/07 11:46:31;;;;;;;2.07;1.60;;;;;;;3.87;100.00;95985.53;5072547;27;101785;-62
2021/12/07 11:49:15;;;;;;;1.90;1.10;;;;;;;3.84;100.00;96005.19;5072687;27;105251;-62
2021/12/07 11:51:44;;;;;;;2.13;1.17;;;;;;;3.96;100.00;95992.09;5071646;27;105804;-62
2021/12/07 11:54:12;;;;;;;2.53;1.40;;;;;;;4.03;100.00;95995.44;5072662;27;101810;-62
2021/12/07 11:56:40;;;;;;;2.30;1.53;;;;;;;4.02;100.00;95988.59;5072335;27;105543;-62
2021/12/07 11:59:10;;;;;;;3.53;1.70;;;;;;;4.07;100.00;95983.47;5071692;27;105382;-62
2021/12/07 12:01:38;;;;;;;2.53;1.60;;;;;;;4.06;100.00;95980.06;5072340;27;101891;-62
2021/12/07 12:04:06;;;;;;;2.17;1.37;;;;;;;4.12;100.00;95981.00;5075227;27;105487;-62
2021/12/07 12:06:34;;;;;;;4.47;1.37;;;;;;;4.10;100.00;95978.56;5072104;27;101928;-62
2021/12/07 12:09:01;;;;;;;1.50;1.27;;;;;;;4.08;100.00;95988.53;5072425;27;104102;-62
2021/12/07 12:11:36;;;;;;;1.93;1.40;;;;;;;4.05;100.00;95986.31;5071440;27;105737;-62
2021/12/07 12:14:16;;;;;;;2.30;1.40;;;;;;;4.09;100.00;95981.44;5072281;27;101679;-62
2021/12/07 12:16:52;;;;;;;2.13;1.33;;;;;;;4.09;100.00;95976.19;5072396;27;103770;-62
2021/12/07 12:19:29;;;;;;;3.03;1.77;;;;;;;4.15;100.00;95970.03;5071391;27;103748;-62
2021/12/07 12:22:00;;;;;;;2.60;1.60;;;;;;;4.26;100.00;95966.66;5072011;27;102410;-62
2021/12/07 12:24:39;;;;;;;2.90;1.73;;;;;;;4.18;100.00;95965.13;5071116;27;105437;-62
2021/12/07 12:27:09;;;;;;;3.40;2.10;;;;;;;4.18;100.00;95969.59;5074817;27;104942;-62
2021/12/07 12:29:41;;;;;;;1.20;1.10;;;;;;;4.16;100.00;95964.53;5073633;27;102367;-62
2021/12/07 12:32:08;;;;;;;5.37;3.30;;;;;;;4.24;100.00;95966.88;5071135;27;105832;-62
2021/12/07 12:34:37;;;;;;;8.40;3.60;;;;;;;4.58;100.00;95962.81;5072069;27;102230;-62
2021/12/07 12:37:09;;;;;;;1.93;1.80;;;;;;;4.49;100.00;95966.78;5072966;27;102548;-62
2021/12/07 12:39:50;;;;;;;2.83;1.70;;;;;;;4.39;100.00;95969.94;5071321;27;105320;-62
2021/12/07 12:42:26;;;;;;;3.03;1.80;;;;;;;4.29;100.00;95966.22;5071220;27;101860;-62
2021/12/07 12:45:00;;;;;;;1.30;1.20;;;;;;;4.29;100.00;95963.56;5071325;27;105264;-62
2021/12/07 12:47:29;;;;;;;1.83;1.40;;;;;;;4.19;100.00;95972.00;5071134;27;103000;-62
2021/12/07 12:49:56;;;;;;;1.87;1.23;;;;;;;4.18;100.00;95970.41;5074894;27;101911;-62
2021/12/07 12:52:42;;;;;;;2.50;1.20;;;;;;;4.24;100.00;95955.53;5071062;27;102873;-62